createdAt,value
2022-12-26T00:01:12.972Z,95966.88
2022-12-26T00:03:39.678Z,95974.28
2022-12-26T00:06:15.725Z,95971.66
2022-12-26T00:08:43.185Z,95968.41
2022-12-26T00:11:10.302Z,95964.63
2022-12-26T00:13:41.124Z,95965.28
2022-12-26T00:16:17.264Z,95961.41
2022-12-26T00:18:44.541Z,95961.31
2022-12-26T00:21:14.141Z,95961.19
2022-12-26T00:23:41.217Z,95969.75
2022-12-26T00:26:17.336Z,95965.16
2022-12-26T00:28:45.056Z,95967.19
2022-12-26T00:31:17.529Z,95965.13
2022-12-26T00:33:44.313Z,95962.22
2022-12-26T00:36:14.477Z,95954.94
2022-12-26T00:38:42.889Z,95964.81
2022-12-26T00:41:11.403Z,95959.91
2022-12-26T00:43:38.210Z,95959.59
2022-12-26T00:46:05.913Z,95969.56
2022-12-26T00:48:32.421Z,95978.47
2022-12-26T00:50:59.009Z,95981.91
2022-12-26T00:53:26.842Z,95980.41
2022-12-26T00:55:53.816Z,95984.22
2022-12-26T00:58:21.240Z,95980.97
2022-12-26T01:00:48.707Z,95979.47
2022-12-26T01:03:15.790Z,95976.53
2022-12-26T01:05:44.589Z,95977.22
2022-12-26T01:08:23.454Z,95973.09
2022-12-26T01:10:50.419Z,95988.25
2022-12-26T01:13:16.912Z,95987.81
2022-12-26T01:15:53.648Z,95981.31
2022-12-26T01:18:21.084Z,95971.16
2022-12-26T01:20:48.693Z,95973.00
2022-12-26T01:23:15.842Z,95975.69
2022-12-26T01:26:17.049Z,95986.63
2022-12-26T01:28:29.642Z,95980.38
2022-12-26T01:31:00.300Z,95985.16
2022-12-26T01:33:26.771Z,95994.19
2022-12-26T01:35:53.833Z,95999.78
2022-12-26T01:38:21.808Z,95994.03
2022-12-26T01:40:49.936Z,95984.00
2022-12-26T01:43:17.159Z,95994.84
2022-12-26T01:45:50.647Z,95986.63
2022-12-26T01:48:25.997Z,95990.25
2022-12-26T01:50:59.652Z,95989.59
2022-12-26T01:53:40.373Z,95978.94
2022-12-26T01:56:12.853Z,95972.13
2022-12-26T01:59:00.408Z,95987.94
2022-12-26T02:01:32.793Z,95981.50
2022-12-26T02:04:05.103Z,95979.41
2022-12-26T02:06:34.084Z,95977.75
2022-12-26T02:09:01.356Z,95976.13
2022-12-26T02:11:34.971Z,95978.75
2022-12-26T02:14:04.263Z,95968.53
2022-12-26T02:16:30.827Z,95975.75
2022-12-26T02:18:57.318Z,95967.84
2022-12-26T02:21:49.669Z,95975.78
2022-12-26T02:24:39.697Z,95971.84
2022-12-26T02:27:24.840Z,95968.22
2022-12-26T02:30:13.524Z,95982.34
2022-12-26T02:33:13.686Z,95985.69
2022-12-26T02:35:59.313Z,95986.00
2022-12-26T02:38:49.913Z,95989.09
2022-12-26T02:41:28.329Z,95982.03
2022-12-26T02:44:16.425Z,95988.28
2022-12-26T02:46:54.609Z,96001.09
2022-12-26T02:49:41.683Z,95986.97
2022-12-26T02:52:21.536Z,95983.69
2022-12-26T02:55:01.661Z,95983.31
2022-12-26T02:57:41.182Z,95985.59
2022-12-26T03:00:18.587Z,95974.13
2022-12-26T03:02:56.756Z,95968.53
2022-12-26T03:05:34.110Z,95973.78
2022-12-26T03:08:06.652Z,95975.28
2022-12-26T03:10:36.873Z,95996.50
2022-12-26T03:13:13.502Z,95995.53
2022-12-26T03:15:57.332Z,95995.13
2022-12-26T03:18:58.036Z,95994.22
2022-12-26T03:21:18.088Z,96004.22
2022-12-26T03:23:48.800Z,95996.13
2022-12-26T03:26:26.838Z,95984.09
2022-12-26T03:28:53.408Z,95983.25
2022-12-26T03:31:19.883Z,95988.00
2022-12-26T03:33:47.398Z,95985.50
2022-12-26T03:36:37.477Z,95990.66
2022-12-26T03:39:29.356Z,95997.94
2022-12-26T03:42:10.374Z,95994.81
2022-12-26T03:45:00.371Z,95996.69
2022-12-26T03:47:45.314Z,96008.38
2022-12-26T03:50:43.452Z,96012.88
2022-12-26T03:53:35.491Z,96009.66
2022-12-26T03:56:14.262Z,96001.59
2022-12-26T03:58:55.655Z,95992.91
2022-12-26T04:01:28.904Z,96005.44
2022-12-26T04:03:59.662Z,96005.63
2022-12-26T04:06:36.249Z,95998.72
2022-12-26T04:09:14.924Z,95995.28
2022-12-26T04:11:44.899Z,95995.97
2022-12-26T04:14:34.616Z,95985.97
2022-12-26T04:17:17.469Z,95995.16
2022-12-26T04:19:55.698Z,95992.56
2022-12-26T04:22:44.935Z,95994.56
2022-12-26T04:25:48.880Z,95994.25
2022-12-26T04:28:09.420Z,96001.13
2022-12-26T04:30:41.905Z,95999.81
2022-12-26T04:33:22.029Z,96005.09
2022-12-26T04:36:02.667Z,96005.69
2022-12-26T04:38:35.600Z,95995.19
2022-12-26T04:41:02.713Z,95990.78
2022-12-26T04:43:48.181Z,95992.56
2022-12-26T04:46:21.662Z,95994.25
2022-12-26T04:48:51.896Z,95997.13
2022-12-26T04:51:18.385Z,95992.56
2022-12-26T04:53:46.448Z,95992.25
2022-12-26T04:56:13.056Z,96000.50
2022-12-26T04:58:39.540Z,96002.97
2022-12-26T05:01:06.057Z,96011.03
2022-12-26T05:03:32.588Z,96005.13
2022-12-26T05:05:59.430Z,95997.88
2022-12-26T05:08:33.500Z,96001.34
2022-12-26T05:10:59.949Z,96005.78
2022-12-26T05:13:27.999Z,96007.25
2022-12-26T05:15:54.480Z,96008.41
2022-12-26T05:18:21.053Z,96007.41
2022-12-26T05:20:49.945Z,96014.03
2022-12-26T05:23:23.464Z,96016.31
2022-12-26T05:25:50.210Z,96015.66
2022-12-26T05:28:17.851Z,96014.34
2022-12-26T05:30:44.366Z,96008.06
2022-12-26T05:33:10.849Z,96011.34
2022-12-26T05:35:39.079Z,96012.06
2022-12-26T05:38:05.931Z,96009.72
2022-12-26T05:40:32.420Z,96010.75
2022-12-26T05:42:58.896Z,96003.81
2022-12-26T05:45:25.350Z,95999.53
2022-12-26T05:47:58.956Z,96001.84
2022-12-26T05:50:25.556Z,95999.19
2022-12-26T05:52:52.130Z,96010.72
2022-12-26T05:55:18.653Z,96000.00
2022-12-26T05:57:45.136Z,96013.34
2022-12-26T06:00:12.366Z,96002.06
2022-12-26T06:02:38.916Z,96018.88
2022-12-26T06:05:05.839Z,96015.19
2022-12-26T06:07:32.341Z,96010.97
2022-12-26T06:09:58.908Z,96013.63
2022-12-26T06:12:25.395Z,96012.53
2022-12-26T06:14:51.881Z,96021.91
2022-12-26T06:17:18.348Z,96018.63
2022-12-26T06:19:47.051Z,96025.22
2022-12-26T06:22:13.736Z,96029.50
2022-12-26T06:24:40.297Z,96024.91
2022-12-26T06:27:06.883Z,96025.38
2022-12-26T06:29:33.352Z,96028.88
2022-12-26T06:31:59.986Z,96033.50
2022-12-26T06:34:26.592Z,96036.63
2022-12-26T06:36:53.249Z,96023.44
2022-12-26T06:39:19.805Z,96022.59
2022-12-26T06:41:46.316Z,96027.22
2022-12-26T06:44:17.979Z,96005.47
2022-12-26T06:46:45.103Z,96019.75
2022-12-26T06:49:11.591Z,96028.38
2022-12-26T06:51:38.136Z,96027.88
2022-12-26T06:54:04.933Z,96031.84
2022-12-26T06:56:32.988Z,96035.78
2022-12-26T06:59:02.863Z,96023.59
2022-12-26T07:01:31.956Z,96019.28
2022-12-26T07:04:01.213Z,96020.63
2022-12-26T07:06:34.609Z,96034.16
2022-12-26T07:09:03.041Z,96026.91
2022-12-26T07:11:33.419Z,96024.91
2022-12-26T07:13:59.863Z,96034.97
2022-12-26T07:16:26.856Z,96038.09
2022-12-26T07:18:57.835Z,96036.78
2022-12-26T07:21:26.356Z,96040.09
2022-12-26T07:23:54.034Z,96042.38
2022-12-26T07:26:20.924Z,96044.72
2022-12-26T07:28:47.815Z,96047.00
2022-12-26T07:31:18.947Z,96042.03
2022-12-26T07:33:50.307Z,96051.66
2022-12-26T07:36:17.230Z,96042.38
2022-12-26T07:38:44.491Z,96040.91
2022-12-26T07:41:11.468Z,96032.97
2022-12-26T07:43:37.939Z,96043.66
2022-12-26T07:46:04.518Z,96046.28
2022-12-26T07:48:31.032Z,96046.94
2022-12-26T07:51:01.818Z,96048.06
2022-12-26T07:53:29.429Z,96063.69
2022-12-26T07:55:59.439Z,96064.38
2022-12-26T07:58:26.530Z,96071.31
2022-12-26T08:00:53.407Z,96071.16
2022-12-26T08:03:20.167Z,96085.03
2022-12-26T08:05:48.903Z,96081.88
2022-12-26T08:08:16.234Z,96076.97
2022-12-26T08:10:42.934Z,96074.59
2022-12-26T08:13:09.537Z,96078.91
2022-12-26T08:15:38.541Z,96082.53
2022-12-26T08:18:05.132Z,96078.56
2022-12-26T08:20:31.612Z,96083.50
2022-12-26T08:25:29.570Z,96089.06
2022-12-26T08:27:56.043Z,96086.06
2022-12-26T08:30:22.520Z,96098.94
2022-12-26T08:32:50.991Z,96102.25
2022-12-26T08:35:17.596Z,96106.63
2022-12-26T08:37:44.104Z,96113.88
2022-12-26T08:40:11.190Z,96099.34
2022-12-26T08:42:55.974Z,96102.41
2022-12-26T08:45:25.874Z,96114.81
2022-12-26T08:47:54.911Z,96114.91
2022-12-26T08:50:21.533Z,96120.03
2022-12-26T08:52:48.084Z,96118.06
2022-12-26T08:55:14.660Z,96116.38
2022-12-26T08:57:41.356Z,96113.72
2022-12-26T09:00:08.887Z,96119.63
2022-12-26T09:02:35.520Z,96126.63
2022-12-26T09:05:02.076Z,96117.41
2022-12-26T09:07:28.648Z,96114.72
2022-12-26T09:09:55.101Z,96112.22
2022-12-26T09:12:21.633Z,96108.56
2022-12-26T09:14:50.153Z,96115.66
2022-12-26T09:17:16.948Z,96118.69
2022-12-26T09:19:43.439Z,96118.72
2022-12-26T09:22:09.917Z,96123.31
2022-12-26T09:24:36.371Z,96128.16
2022-12-26T09:27:02.952Z,96130.66
2022-12-26T09:29:29.408Z,96136.88
2022-12-26T09:31:55.898Z,96135.00
2022-12-26T09:34:22.732Z,96137.50
2022-12-26T09:36:49.173Z,96145.78
2022-12-26T09:39:15.635Z,96162.41
2022-12-26T09:41:48.080Z,96164.59
2022-12-26T09:44:24.862Z,96163.75
2022-12-26T09:46:58.784Z,96167.22
2022-12-26T09:49:34.684Z,96160.44
2022-12-26T09:52:10.705Z,96175.28
2022-12-26T09:54:49.459Z,96181.72
2022-12-26T09:57:29.824Z,96182.88
2022-12-26T10:00:01.266Z,96202.50
2022-12-26T10:02:28.268Z,96198.06
2022-12-26T10:04:54.982Z,96194.72
2022-12-26T10:07:42.566Z,96188.09
2022-12-26T10:10:10.704Z,96188.22
2022-12-26T10:12:54.594Z,96192.78
2022-12-26T10:15:52.263Z,96182.19
2022-12-26T10:18:51.314Z,96185.84
2022-12-26T10:21:49.323Z,96187.50
2022-12-26T10:24:21.942Z,96185.53
2022-12-26T10:26:53.556Z,96196.09
2022-12-26T10:29:30.137Z,96193.78
2022-12-26T10:32:08.416Z,96189.00
2022-12-26T10:34:44.070Z,96173.59
2022-12-26T10:37:26.370Z,96168.06
2022-12-26T10:40:07.636Z,96175.31
2022-12-26T10:42:38.073Z,96175.94
2022-12-26T10:45:44.987Z,96176.78
2022-12-26T10:48:15.563Z,96189.00
2022-12-26T10:50:49.568Z,96196.75
2022-12-26T10:53:17.342Z,96184.25
2022-12-26T10:55:44.352Z,96182.53
2022-12-26T10:58:22.543Z,96183.47
2022-12-26T11:00:49.695Z,96174.47
2022-12-26T11:03:19.369Z,96192.66
2022-12-26T11:06:07.589Z,96183.41
2022-12-26T11:08:48.775Z,96184.03
2022-12-26T11:11:17.913Z,96182.88
2022-12-26T11:14:01.828Z,96176.31
2022-12-26T11:16:37.748Z,96180.84
2022-12-26T11:19:04.396Z,96174.09
2022-12-26T11:21:32.473Z,96177.31
2022-12-26T11:24:07.945Z,96180.41
2022-12-26T11:26:35.726Z,96172.97
2022-12-26T11:29:14.762Z,96161.41
2022-12-26T11:31:57.961Z,96164.09
2022-12-26T11:34:37.915Z,96157.16
2022-12-26T11:37:07.209Z,96138.63
2022-12-26T11:39:37.731Z,96147.53
2022-12-26T11:42:13.057Z,96151.22
2022-12-26T11:44:44.835Z,96158.16
2022-12-26T11:47:17.742Z,96158.41
2022-12-26T11:49:57.276Z,96154.78
2022-12-26T11:52:44.247Z,96156.16
2022-12-26T11:55:22.722Z,96152.38
2022-12-26T11:58:20.528Z,96148.19
2022-12-26T12:00:49.619Z,96137.13
2022-12-26T12:03:21.077Z,96145.31
2022-12-26T12:06:13.475Z,96151.84
2022-12-26T12:09:18.905Z,96150.16
2022-12-26T12:11:51.269Z,96156.13
2022-12-26T12:14:54.315Z,96162.53
2022-12-26T12:17:28.985Z,96163.41
2022-12-26T12:20:59.980Z,96151.06
2022-12-26T12:23:39.375Z,96147.06
2022-12-26T12:26:21.491Z,96147.69
2022-12-26T12:29:06.115Z,96148.84
2022-12-26T12:32:08.565Z,96144.28
2022-12-26T12:34:57.614Z,96148.69
2022-12-26T12:37:34.672Z,96147.28
2022-12-26T12:40:35.661Z,96141.16
2022-12-26T12:43:26.307Z,96148.88
2022-12-26T12:46:01.073Z,96147.56
2022-12-26T12:48:39.821Z,96153.81
2022-12-26T12:51:54.305Z,96151.69
2022-12-26T12:54:49.335Z,96151.94
2022-12-26T12:57:34.226Z,96142.59
2022-12-26T13:00:15.681Z,96140.50
2022-12-26T13:02:51.639Z,96136.88
2022-12-26T13:05:44.529Z,96135.84
2022-12-26T13:08:25.534Z,96123.06
2022-12-26T13:10:59.884Z,96115.38
2022-12-26T13:13:37.576Z,96113.66
2022-12-26T13:16:18.877Z,96110.75
2022-12-26T13:18:58.361Z,96113.59
2022-12-26T13:21:28.689Z,96124.16
2022-12-26T13:24:04.996Z,96115.03
2022-12-26T13:26:40.458Z,96117.09
2022-12-26T13:29:18.089Z,96111.31
2022-12-26T13:31:45.938Z,96114.66
2022-12-26T13:34:19.943Z,96117.22
2022-12-26T13:36:52.509Z,96112.84
2022-12-26T13:39:27.036Z,96116.50
2022-12-26T13:42:00.772Z,96104.91
2022-12-26T13:44:27.658Z,96108.72
2022-12-26T13:46:57.323Z,96103.69
2022-12-26T13:49:32.663Z,96099.06
2022-12-26T13:52:20.127Z,96106.53
2022-12-26T13:54:49.293Z,96101.38
2022-12-26T13:57:36.465Z,96107.94
2022-12-26T14:00:44.134Z,96125.41
2022-12-26T14:03:21.419Z,96129.59
2022-12-26T14:06:29.531Z,96131.56
2022-12-26T14:09:05.692Z,96131.38
2022-12-26T14:11:51.732Z,96126.44
2022-12-26T14:14:38.489Z,96138.53
2022-12-26T14:17:23.583Z,96123.16
2022-12-26T14:20:10.956Z,96130.91
2022-12-26T14:22:53.142Z,96142.44
2022-12-26T14:25:30.435Z,96144.94
2022-12-26T14:28:23.447Z,96143.94
2022-12-26T14:30:55.823Z,96153.00
2022-12-26T14:33:38.102Z,96157.16
2022-12-26T14:36:25.409Z,96174.66
2022-12-26T14:39:23.568Z,96187.84
2022-12-26T14:42:08.241Z,96187.88
2022-12-26T14:44:34.646Z,96189.34
2022-12-26T14:47:03.841Z,96178.53
2022-12-26T14:49:35.157Z,96191.28
2022-12-26T14:52:31.308Z,96200.69
2022-12-26T14:54:57.924Z,96208.72
2022-12-26T14:57:47.525Z,96208.50
2022-12-26T15:00:23.032Z,96206.44
2022-12-26T15:03:20.694Z,96213.06
2022-12-26T15:05:50.740Z,96211.16
2022-12-26T15:09:00.699Z,96209.31
2022-12-26T15:12:20.988Z,96214.78
2022-12-26T15:15:17.809Z,96204.03
2022-12-26T15:18:04.818Z,96219.34
2022-12-26T15:21:08.194Z,96209.72
2022-12-26T15:23:55.713Z,96222.81
2022-12-26T15:26:40.478Z,96227.66
2022-12-26T15:29:19.107Z,96228.63
2022-12-26T15:31:54.665Z,96208.16
2022-12-26T15:34:37.828Z,96206.91
2022-12-26T15:37:08.157Z,96216.78
2022-12-26T15:39:49.077Z,96218.47
2022-12-26T15:42:34.399Z,96222.44
2022-12-26T15:45:26.138Z,96223.16
2022-12-26T15:48:12.431Z,96234.00
2022-12-26T15:50:57.791Z,96233.03
2022-12-26T15:54:01.235Z,96232.38
2022-12-26T15:56:46.606Z,96225.94
2022-12-26T15:59:38.341Z,96232.34
2022-12-26T16:02:12.923Z,96228.09
2022-12-26T16:04:47.031Z,96240.59
2022-12-26T16:07:27.218Z,96247.53
2022-12-26T16:09:55.383Z,96254.34
2022-12-26T16:12:32.242Z,96254.34
2022-12-26T16:15:10.716Z,96254.78
2022-12-26T16:17:39.125Z,96258.06
2022-12-26T16:20:28.799Z,96267.94
2022-12-26T16:22:55.311Z,96264.81
2022-12-26T16:25:25.775Z,96277.41
2022-12-26T16:27:56.863Z,96272.22
2022-12-26T16:30:27.730Z,96285.56
2022-12-26T16:32:55.382Z,96281.53
2022-12-26T16:35:48.128Z,96281.22
2022-12-26T16:38:19.609Z,96290.53
2022-12-26T16:40:49.990Z,96292.41
2022-12-26T16:43:19.376Z,96297.72
2022-12-26T16:45:51.000Z,96308.72
2022-12-26T16:48:21.828Z,96317.09
2022-12-26T16:50:52.148Z,96312.06
2022-12-26T16:53:25.211Z,96325.16
2022-12-26T16:55:58.504Z,96320.06
2022-12-26T16:58:34.606Z,96308.56
2022-12-26T17:01:01.021Z,96324.88
2022-12-26T17:03:48.237Z,96335.78
2022-12-26T17:06:30.575Z,96341.81
2022-12-26T17:09:06.765Z,96347.38
2022-12-26T17:11:45.509Z,96337.53
2022-12-26T17:14:22.479Z,96344.75
2022-12-26T17:17:00.188Z,96346.78
2022-12-26T17:19:30.236Z,96367.22
2022-12-26T17:22:15.170Z,96375.50
2022-12-26T17:24:43.415Z,96357.63
2022-12-26T17:27:17.904Z,96347.56
2022-12-26T17:30:17.976Z,96361.97
2022-12-26T17:32:46.335Z,96365.09
2022-12-26T17:35:16.996Z,96360.13
2022-12-26T17:37:45.699Z,96357.56
2022-12-26T17:40:14.920Z,96344.72
2022-12-26T17:42:51.871Z,96344.44
2022-12-26T17:45:22.491Z,96347.13
2022-12-26T17:47:54.147Z,96351.47
2022-12-26T17:50:23.354Z,96335.66
2022-12-26T17:52:50.600Z,96332.84
2022-12-26T17:55:24.081Z,96342.22
2022-12-26T17:57:50.895Z,96350.16
2022-12-26T18:00:20.888Z,96356.22
2022-12-26T18:02:47.941Z,96365.66
2022-12-26T18:05:15.279Z,96375.06
2022-12-26T18:07:43.386Z,96382.09
2022-12-26T18:10:22.562Z,96389.72
2022-12-26T18:12:50.137Z,96396.72
2022-12-26T18:15:17.725Z,96412.88
2022-12-26T18:17:45.668Z,96412.69
2022-12-26T18:20:22.042Z,96404.50
2022-12-26T18:22:49.129Z,96410.16
2022-12-26T18:25:19.280Z,96400.94
2022-12-26T18:27:46.255Z,96409.34
2022-12-26T18:30:17.306Z,96405.91
2022-12-26T18:32:44.367Z,96394.56
2022-12-26T18:35:12.663Z,96403.97
2022-12-26T18:37:42.910Z,96409.78
2022-12-26T18:40:33.101Z,96412.78
2022-12-26T18:42:59.562Z,96401.56
2022-12-26T18:45:26.309Z,96407.50
2022-12-26T18:47:53.020Z,96409.09
2022-12-26T18:50:20.287Z,96398.78
2022-12-26T18:52:53.171Z,96401.56
2022-12-26T18:55:20.819Z,96410.81
2022-12-26T18:57:47.279Z,96413.16
2022-12-26T19:00:16.134Z,96424.00
2022-12-26T19:02:42.637Z,96426.38
2022-12-26T19:05:22.076Z,96433.31
2022-12-26T19:07:49.551Z,96425.44
2022-12-26T19:10:22.060Z,96432.34
2022-12-26T19:12:49.096Z,96439.31
2022-12-26T19:15:15.728Z,96425.00
2022-12-26T19:17:43.300Z,96427.56
2022-12-26T19:20:19.850Z,96427.97
2022-12-26T19:22:47.514Z,96430.72
2022-12-26T19:25:14.999Z,96434.88
2022-12-26T19:27:41.560Z,96429.31
2022-12-26T19:30:08.982Z,96432.03
2022-12-26T19:32:35.547Z,96428.88
2022-12-26T19:35:02.151Z,96433.00
2022-12-26T19:37:28.891Z,96432.06
2022-12-26T19:39:55.509Z,96433.84
2022-12-26T19:42:22.059Z,96436.72
2022-12-26T19:44:48.645Z,96447.56
2022-12-26T19:47:15.136Z,96453.56
2022-12-26T19:49:42.406Z,96439.16
2022-12-26T19:52:12.613Z,96439.34
2022-12-26T19:54:39.226Z,96446.16
2022-12-26T19:57:06.144Z,96445.53
2022-12-26T19:59:32.947Z,96450.66
2022-12-26T20:01:59.633Z,96443.03
2022-12-26T20:04:26.342Z,96448.66
2022-12-26T20:06:52.857Z,96451.00
2022-12-26T20:09:19.350Z,96463.19
2022-12-26T20:11:48.644Z,96459.56
2022-12-26T20:14:18.981Z,96460.22
2022-12-26T20:17:04.860Z,96462.47
2022-12-26T20:19:31.823Z,96469.41
2022-12-26T20:21:58.287Z,96472.81
2022-12-26T20:24:24.831Z,96475.84
2022-12-26T20:26:51.344Z,96475.69
2022-12-26T20:29:17.991Z,96478.44
2022-12-26T20:31:44.597Z,96473.19
2022-12-26T20:34:11.494Z,96470.41
2022-12-26T20:36:39.400Z,96485.88
2022-12-26T20:39:10.172Z,96481.00
2022-12-26T20:41:37.055Z,96494.69
2022-12-26T20:44:03.559Z,96492.00
2022-12-26T20:46:32.223Z,96500.88
2022-12-26T20:49:00.211Z,96506.28
2022-12-26T20:51:36.383Z,96510.34
2022-12-26T20:54:08.251Z,96501.84
2022-12-26T20:56:35.934Z,96496.34
2022-12-26T20:59:03.457Z,96502.53
2022-12-26T21:01:30.007Z,96499.94
2022-12-26T21:03:57.703Z,96496.81
2022-12-26T21:06:29.817Z,96501.09
2022-12-26T21:08:57.562Z,96500.72
2022-12-26T21:11:29.215Z,96509.63
2022-12-26T21:13:59.322Z,96501.69
2022-12-26T21:16:39.255Z,96511.97
2022-12-26T21:19:12.529Z,96506.44
2022-12-26T21:21:43.854Z,96506.16
2022-12-26T21:24:17.329Z,96499.53
2022-12-26T21:26:45.302Z,96505.84
2022-12-26T21:29:15.604Z,96514.78
2022-12-26T21:31:42.923Z,96515.09
2022-12-26T21:34:12.656Z,96517.03
2022-12-26T21:36:39.112Z,96519.72
2022-12-26T21:39:08.663Z,96529.44
2022-12-26T21:41:36.739Z,96527.06
2022-12-26T21:44:03.289Z,96543.63
2022-12-26T21:46:29.880Z,96556.19
2022-12-26T21:48:56.392Z,96552.22
2022-12-26T21:51:24.192Z,96562.28
2022-12-26T21:53:50.644Z,96581.28
2022-12-26T21:56:17.731Z,96576.72
2022-12-26T21:58:44.665Z,96574.22
2022-12-26T22:01:17.620Z,96573.41
2022-12-26T22:03:44.243Z,96589.16
2022-12-26T22:06:16.429Z,96583.44
2022-12-26T22:08:44.196Z,96584.19
2022-12-26T22:11:17.394Z,96589.09
2022-12-26T22:13:43.838Z,96599.22
2022-12-26T22:16:12.410Z,96600.31
2022-12-26T22:18:47.157Z,96604.41
2022-12-26T22:21:20.563Z,96600.06
2022-12-26T22:23:48.164Z,96610.38
2022-12-26T22:26:15.139Z,96608.72
2022-12-26T22:28:42.284Z,96608.56
2022-12-26T22:31:17.510Z,96602.91
2022-12-26T22:33:44.031Z,96604.81
2022-12-26T22:36:10.495Z,96605.63
2022-12-26T22:38:37.889Z,96607.97
2022-12-26T22:41:04.943Z,96615.97
2022-12-26T22:43:31.843Z,96608.59
2022-12-26T22:45:58.360Z,96614.56
2022-12-26T22:48:25.216Z,96623.22
2022-12-26T22:50:53.813Z,96617.84
2022-12-26T22:53:26.214Z,96616.59
2022-12-26T22:56:00.463Z,96620.03
2022-12-26T22:58:28.232Z,96626.97
2022-12-26T23:00:55.451Z,96615.63
2022-12-26T23:03:22.597Z,96622.81
2022-12-26T23:05:49.592Z,96624.69
2022-12-26T23:08:20.532Z,96619.31
2022-12-26T23:10:48.128Z,96616.16
2022-12-26T23:13:15.939Z,96610.75
2022-12-26T23:15:54.515Z,96617.69
2022-12-26T23:18:34.270Z,96614.47
2022-12-26T23:21:07.880Z,96608.34
2022-12-26T23:23:34.547Z,96611.91
2022-12-26T23:26:01.413Z,96612.59
2022-12-26T23:28:28.283Z,96621.16
2022-12-26T23:30:54.798Z,96610.28
2022-12-26T23:33:21.299Z,96621.63
2022-12-26T23:35:47.835Z,96614.66
2022-12-26T23:38:14.299Z,96607.13
2022-12-26T23:40:40.770Z,96610.38
2022-12-26T23:43:07.237Z,96604.97
2022-12-26T23:45:33.709Z,96615.28
2022-12-26T23:48:00.163Z,96608.78
2022-12-26T23:50:26.635Z,96602.69
2022-12-26T23:52:53.118Z,96602.22
2022-12-26T23:55:19.693Z,96608.03
2022-12-26T23:57:46.171Z,96611.94
